Time,TemperatureF,DewpointF,PressureIn,WindDirection,WindDirectionDegrees,WindSpeedMPH,WindSpeedGustMPH,Humidity,HourlyPrecipIn,Conditions,Clouds,dailyrainin,SolarRadiationWatts/m^2,SoftwareType,DateUTC
2013-07-11 00:01:00,59.0,45.0,-100.00,North,353,1.0,5.0,60,0.00,,,0.00,0.000000,,2013-07-11 06:01:00,
2013-07-11 00:11:00,59.0,45.0,-100.00,North,353,1.0,5.0,60,0.00,,,0.00,0.000000,,2013-07-11 06:11:00,
2013-07-11 00:22:00,59.0,45.0,-100.00,North,353,1.0,5.0,60,0.00,,,0.00,0.000000,,2013-07-11 06:22:00,
2013-07-11 00:32:00,59.0,45.0,-100.00,North,353,1.0,5.0,60,0.00,,,0.00,0.000000,,2013-07-11 06:32:00,
2013-07-11 01:01:00,56.0,44.0,-100.00,SSW,210,1.0,4.0,65,0.00,,,0.00,0.000000,,2013-07-11 07:01:00,
2013-07-11 01:12:00,56.0,44.0,-100.00,SSW,210,1.0,4.0,65,0.00,,,0.00,0.000000,,2013-07-11 07:12:00,
2013-07-11 01:22:00,56.0,44.0,-100.00,SSW,210,1.0,4.0,65,0.00,,,0.00,0.000000,,2013-07-11 07:22:00,
2013-07-11 01:32:00,56.0,44.0,-100.00,SSW,210,1.0,4.0,65,0.00,,,0.00,0.000000,,2013-07-11 07:32:00,
2013-07-11 02:02:00,54.0,44.0,-100.00,ENE,67,0.0,3.0,70,0.00,,,0.00,0.000000,,2013-07-11 08:02:00,
2013-07-11 02:11:00,54.0,44.0,-100.00,ENE,67,0.0,3.0,70,0.00,,,0.00,0.000000,,2013-07-11 08:11:00,
2013-07-11 02:22:00,54.0,44.0,-100.00,ENE,67,0.0,3.0,70,0.00,,,0.00,0.000000,,2013-07-11 08:22:00,
2013-07-11 02:33:00,54.0,44.0,-100.00,ENE,67,0.0,3.0,70,0.00,,,0.00,0.000000,,2013-07-11 08:33:00,
2013-07-11 03:02:00,50.0,43.0,-100.00,SSE,164,0.0,2.0,78,0.00,,,0.00,0.000000,,2013-07-11 09:02:00,
2013-07-11 03:12:00,50.0,43.0,-100.00,SSE,164,0.0,2.0,78,0.00,,,0.00,0.000000,,2013-07-11 09:12:00,
2013-07-11 03:21:00,50.0,43.0,-100.00,SSE,164,0.0,2.0,78,0.00,,,0.00,0.000000,,2013-07-11 09:21:00,
2013-07-11 03:33:00,50.0,43.0,-100.00,SSE,164,0.0,2.0,78,0.00,,,0.00,0.000000,,2013-07-11 09:33:00,
2013-07-11 04:01:00,49.0,43.0,-100.00,NW,308,0.0,2.0,80,0.00,,,0.00,0.000000,,2013-07-11 10:01:00,
2013-07-11 04:11:00,49.0,43.0,-100.00,NW,308,0.0,2.0,80,0.00,,,0.00,0.000000,,2013-07-11 10:11:00,
2013-07-11 04:21:00,49.0,43.0,-100.00,NW,308,0.0,2.0,80,0.00,,,0.00,0.000000,,2013-07-11 10:21:00,
2013-07-11 04:33:00,49.0,43.0,-100.00,NW,308,0.0,2.0,80,0.00,,,0.00,0.000000,,2013-07-11 10:33:00,
2013-07-11 05:02:00,48.0,42.0,-100.00,NW,311,0.0,2.0,81,0.00,,,0.00,0.000000,,2013-07-11 11:02:00,
2013-07-11 05:12:00,48.0,42.0,-100.00,NW,311,0.0,2.0,81,0.00,,,0.00,0.000000,,2013-07-11 11:12:00,
2013-07-11 05:22:00,48.0,42.0,-100.00,NW,311,0.0,2.0,81,0.00,,,0.00,0.000000,,2013-07-11 11:22:00,
2013-07-11 05:32:00,48.0,42.0,-100.00,NW,311,0.0,2.0,81,0.00,,,0.00,0.000000,,2013-07-11 11:32:00,
2013-07-11 06:01:00,47.0,43.0,-100.00,SSE,154,0.0,2.0,85,0.00,,,-99.99,0.000000,,2013-07-11 12:01:00,
2013-07-11 06:12:00,47.0,43.0,-100.00,SSE,154,0.0,2.0,85,0.00,,,-99.99,0.000000,,2013-07-11 12:12:00,
2013-07-11 06:22:00,47.0,43.0,-100.00,SSE,154,0.0,2.0,85,0.00,,,-99.99,0.000000,,2013-07-11 12:22:00,
2013-07-11 06:33:00,47.0,43.0,-100.00,SSE,154,0.0,2.0,85,0.00,,,-99.99,0.000000,,2013-07-11 12:33:00,
2013-07-11 07:02:00,48.0,44.0,-100.00,West,269,0.0,2.0,85,0.00,,,-99.99,17.000000,,2013-07-11 13:02:00,
2013-07-11 07:22:00,48.0,44.0,-100.00,West,269,0.0,2.0,85,0.00,,,-99.99,17.000000,,2013-07-11 13:22:00,
2013-07-11 07:33:00,48.0,44.0,-100.00,West,269,0.0,2.0,85,0.00,,,-99.99,17.000000,,2013-07-11 13:33:00,
2013-07-11 08:04:00,54.0,45.0,-100.00,NE,50,0.0,2.0,71,0.00,,,0.00,65.000000,,2013-07-11 14:04:00,
2013-07-11 08:13:00,54.0,45.0,-100.00,NE,50,0.0,2.0,71,0.00,,,0.00,65.000000,,2013-07-11 14:13:00,
2013-07-11 08:22:00,54.0,45.0,-100.00,NE,50,0.0,2.0,71,0.00,,,0.00,65.000000,,2013-07-11 14:22:00,
2013-07-11 09:04:00,60.0,46.0,-100.00,SSW,192,1.0,4.0,60,0.00,,,-99.99,158.000000,,2013-07-11 15:04:00,
2013-07-11 09:12:00,60.0,46.0,-100.00,SSW,192,1.0,4.0,60,0.00,,,-99.99,158.000000,,2013-07-11 15:12:00,
2013-07-11 09:23:00,60.0,46.0,-100.00,SSW,192,1.0,4.0,60,0.00,,,-99.99,158.000000,,2013-07-11 15:23:00,
2013-07-11 09:34:00,60.0,46.0,-100.00,SSW,192,1.0,4.0,60,0.00,,,-99.99,158.000000,,2013-07-11 15:34:00,
2013-07-11 10:04:00,65.0,49.0,-100.00,SSW,197,1.0,6.0,56,0.00,,,0.00,269.000000,,2013-07-11 16:04:00,
2013-07-11 10:13:00,65.0,49.0,-100.00,SSW,197,1.0,6.0,56,0.00,,,0.00,269.000000,,2013-07-11 16:13:00,
2013-07-11 10:22:00,65.0,49.0,-100.00,SSW,197,1.0,6.0,56,0.00,,,0.00,269.000000,,2013-07-11 16:22:00,
2013-07-11 10:33:00,65.0,49.0,-100.00,SSW,197,1.0,6.0,56,0.00,,,0.00,269.000000,,2013-07-11 16:33:00,
2013-07-11 11:02:00,75.0,40.0,-100.00,SSW,206,5.0,16.0,28,0.00,,,0.00,623.000000,,2013-07-11 17:02:00,
2013-07-11 11:13:00,75.0,40.0,-100.00,SSW,206,5.0,16.0,28,0.00,,,0.00,623.000000,,2013-07-11 17:13:00,
2013-07-11 11:23:00,75.0,40.0,-100.00,SSW,206,5.0,16.0,28,0.00,,,0.00,623.000000,,2013-07-11 17:23:00,
2013-07-11 11:34:00,75.0,40.0,-100.00,SSW,206,5.0,16.0,28,0.00,,,0.00,623.000000,,2013-07-11 17:34:00,
2013-07-11 12:03:00,75.0,41.0,-100.00,SSW,212,5.0,17.0,30,0.00,,,0.00,493.000000,,2013-07-11 18:03:00,
2013-07-11 12:13:00,75.0,41.0,-100.00,SSW,212,5.0,17.0,30,0.00,,,0.00,493.000000,,2013-07-11 18:13:00,
2013-07-11 12:22:00,75.0,41.0,-100.00,SSW,212,5.0,17.0,30,0.00,,,0.00,493.000000,,2013-07-11 18:22:00,
2013-07-11 12:33:00,75.0,41.0,-100.00,SSW,212,5.0,17.0,30,0.00,,,0.00,493.000000,,2013-07-11 18:33:00,
2013-07-11 13:03:00,78.0,40.0,-100.00,SW,216,5.0,13.0,26,0.00,,,0.00,662.000000,,2013-07-11 19:03:00,
2013-07-11 13:22:00,78.0,40.0,-100.00,SW,216,5.0,13.0,26,0.00,,,0.00,662.000000,,2013-07-11 19:22:00,
2013-07-11 13:34:00,78.0,40.0,-100.00,SW,216,5.0,13.0,26,0.00,,,0.00,662.000000,,2013-07-11 19:34:00,
2013-07-11 14:12:00,79.0,42.0,-100.00,SSW,207,5.0,14.0,27,0.00,,,0.00,724.000000,,2013-07-11 20:12:00,
2013-07-11 14:23:00,79.0,42.0,-100.00,SSW,207,5.0,14.0,27,0.00,,,0.00,724.000000,,2013-07-11 20:23:00,
2013-07-11 15:03:00,76.0,42.0,-100.00,SSW,210,5.0,14.0,30,0.00,,,0.00,540.000000,,2013-07-11 21:03:00,
2013-07-11 15:13:00,76.0,42.0,-100.00,SSW,210,5.0,14.0,30,0.00,,,0.00,540.000000,,2013-07-11 21:13:00,
2013-07-11 15:33:00,76.0,42.0,-100.00,SSW,210,5.0,14.0,30,0.00,,,0.00,540.000000,,2013-07-11 21:33:00,
2013-07-11 16:04:00,70.0,44.0,-100.00,West,277,6.0,14.0,39,0.00,,,0.00,236.000000,,2013-07-11 22:04:00,
2013-07-11 16:13:00,70.0,44.0,-100.00,West,277,6.0,14.0,39,0.00,,,0.00,236.000000,,2013-07-11 22:13:00,
2013-07-11 16:22:00,70.0,44.0,-100.00,West,277,6.0,14.0,39,0.00,,,0.00,236.000000,,2013-07-11 22:22:00,
2013-07-11 16:32:00,70.0,44.0,-100.00,West,277,6.0,14.0,39,0.00,,,0.00,236.000000,,2013-07-11 22:32:00,
2013-07-11 17:03:00,67.0,44.0,-100.00,WSW,244,3.0,12.0,44,0.00,,,0.00,123.000000,,2013-07-11 23:03:00,
2013-07-11 17:12:00,67.0,44.0,-100.00,WSW,244,3.0,12.0,44,0.00,,,0.00,123.000000,,2013-07-11 23:12:00,
2013-07-11 17:23:00,67.0,44.0,-100.00,WSW,244,3.0,12.0,44,0.00,,,0.00,123.000000,,2013-07-11 23:23:00,
2013-07-11 17:33:00,67.0,44.0,-100.00,WSW,244,3.0,12.0,44,0.00,,,0.00,123.000000,,2013-07-11 23:33:00,
2013-07-11 18:03:00,62.0,48.0,-100.00,WSW,249,4.0,10.0,61,0.00,,,0.00,83.000000,,2013-07-12 00:03:00,
2013-07-11 18:23:00,62.0,48.0,-100.00,WSW,249,4.0,10.0,61,0.00,,,0.00,83.000000,,2013-07-12 00:23:00,
2013-07-11 18:34:00,62.0,48.0,-100.00,WSW,249,4.0,10.0,61,0.00,,,0.00,83.000000,,2013-07-12 00:34:00,
2013-07-11 19:02:00,60.0,50.0,-100.00,SSE,160,4.0,7.0,69,0.01,,,0.01,92.000000,,2013-07-12 01:02:00,
2013-07-11 19:12:00,60.0,50.0,-100.00,SSE,160,4.0,7.0,69,0.01,,,0.01,92.000000,,2013-07-12 01:12:00,
2013-07-11 19:23:00,60.0,50.0,-100.00,SSE,160,4.0,7.0,69,0.01,,,0.01,92.000000,,2013-07-12 01:23:00,
2013-07-11 19:32:00,60.0,50.0,-100.00,SSE,160,4.0,7.0,69,0.01,,,0.01,92.000000,,2013-07-12 01:32:00,
2013-07-11 20:14:00,57.0,51.0,-100.00,SSW,196,4.0,10.0,79,0.00,,,0.01,59.000000,,2013-07-12 02:14:00,
2013-07-11 20:24:00,57.0,51.0,-100.00,SSW,196,4.0,10.0,79,0.00,,,0.01,59.000000,,2013-07-12 02:24:00,
2013-07-11 20:34:00,57.0,51.0,-100.00,SSW,196,4.0,10.0,79,0.00,,,0.01,59.000000,,2013-07-12 02:34:00,
2013-07-11 21:02:00,56.0,49.0,-100.00,SE,143,2.0,6.0,77,0.00,,,0.01,28.000000,,2013-07-12 03:02:00,
2013-07-11 21:13:00,56.0,49.0,-100.00,SE,143,2.0,6.0,77,0.00,,,0.01,28.000000,,2013-07-12 03:13:00,
2013-07-11 21:23:00,56.0,49.0,-100.00,SE,143,2.0,6.0,77,0.00,,,0.01,28.000000,,2013-07-12 03:23:00,
2013-07-11 21:33:00,56.0,49.0,-100.00,SE,143,2.0,6.0,77,0.00,,,0.01,28.000000,,2013-07-12 03:33:00,
2013-07-11 22:01:00,55.0,48.0,-100.00,SE,145,1.0,7.0,78,0.00,,,0.01,2.000000,,2013-07-12 04:01:00,
2013-07-11 22:11:00,55.0,48.0,-100.00,SE,145,1.0,7.0,78,0.00,,,0.01,2.000000,,2013-07-12 04:11:00,
2013-07-11 22:21:00,55.0,48.0,-100.00,SE,145,1.0,7.0,78,0.00,,,0.01,2.000000,,2013-07-12 04:21:00,
2013-07-11 22:32:00,55.0,48.0,-100.00,SE,145,1.0,7.0,78,0.00,,,0.01,2.000000,,2013-07-12 04:32:00,
2013-07-11 23:02:00,54.0,48.0,-100.00,NNW,332,0.0,3.0,80,0.00,,,0.01,0.000000,,2013-07-12 05:02:00,
2013-07-11 23:11:00,54.0,48.0,-100.00,NNW,332,0.0,3.0,80,0.00,,,0.01,0.000000,,2013-07-12 05:11:00,
2013-07-11 23:22:00,54.0,48.0,-100.00,NNW,332,0.0,3.0,80,0.00,,,0.01,0.000000,,2013-07-12 05:22:00,
2013-07-11 23:32:00,54.0,48.0,-100.00,NNW,332,0.0,3.0,80,0.00,,,0.01,0.000000,,2013-07-12 05:32:00,